Time;durP1;ratioP1;P1;durP2;ratioP2;P2;SDS_P1;SDS_P2;PMS_P1;PMS_P2;Temp;Humidity;BMP_temperature;BMP_pressure;BME280_temperature;BME280_humidity;BME280_pressure;Samples;Min_cycle;Max_cycle;Signal;HPM_P1;HPM_P2
2022/05/27 00:00:15;;;;;;;18.83;13.80;;;15.30;99.90;;;;;;6200712;23;20460;-82
2022/05/27 00:02:44;;;;;;;15.33;13.17;;;15.30;99.90;;;;;;6200604;23;20471;-82
2022/05/27 00:05:12;;;;;;;15.50;13.73;;;15.30;99.90;;;;;;6200556;23;20393;-82
2022/05/27 00:07:42;;;;;;;15.90;14.30;;;15.30;99.90;;;;;;6238859;23;20395;-82
2022/05/27 00:10:13;;;;;;;16.67;12.93;;;15.30;99.90;;;;;;6200366;23;20420;-81
2022/05/27 00:12:41;;;;;;;16.10;14.50;;;15.30;99.90;;;;;;6199856;23;20525;-81
2022/05/27 00:15:10;;;;;;;18.20;14.43;;;15.30;99.90;;;;;;6200141;23;20421;-81
2022/05/27 00:17:38;;;;;;;14.53;13.00;;;15.30;99.90;;;;;;6199682;23;20885;-81
2022/05/27 00:20:08;;;;;;;15.67;14.37;;;15.30;99.90;;;;;;6199970;23;20413;-81
2022/05/27 00:22:36;;;;;;;15.97;14.20;;;15.30;99.90;;;;;;6200291;23;21004;-81
2022/05/27 00:25:07;;;;;;;16.77;15.20;;;15.30;99.90;;;;;;6225650;23;20454;-81
2022/05/27 00:27:36;;;;;;;17.90;14.30;;;15.30;99.90;;;;;;6200889;23;20432;-81
2022/05/27 00:30:04;;;;;;;17.50;16.00;;;15.30;99.90;;;;;;6241538;23;20395;-81
2022/05/27 00:32:33;;;;;;;16.70;15.00;;;15.30;99.90;;;;;;6227307;23;20426;-82
2022/05/27 00:35:01;;;;;;;16.93;15.23;;;15.30;99.90;;;;;;6200318;23;20422;-82
2022/05/27 00:37:29;;;;;;;18.67;16.57;;;15.30;99.90;;;;;;6224370;23;20805;-81
2022/05/27 00:39:57;;;;;;;16.07;13.47;;;15.30;99.90;;;;;;6200010;23;20470;-81
2022/05/27 00:42:27;;;;;;;16.37;14.43;;;15.30;99.90;;;;;;6199420;23;20465;-82
2022/05/27 00:44:56;;;;;;;16.90;15.10;;;15.30;99.90;;;;;;6198334;23;20401;-81
2022/05/27 00:47:28;;;;;;;15.00;13.50;;;15.30;99.90;;;;;;6198158;23;20485;-82
2022/05/27 00:50:00;;;;;;;17.40;14.20;;;15.30;99.90;;;;;;6235096;23;20379;-81
2022/05/27 00:52:35;;;;;;;17.53;15.53;;;15.20;99.90;;;;;;6196936;23;20807;-81
2022/05/27 00:55:06;;;;;;;17.10;15.40;;;15.20;99.90;;;;;;6195783;23;20787;-81
2022/05/27 00:57:41;;;;;;;15.23;13.60;;;15.20;99.90;;;;;;6196551;23;20787;-81
2022/05/27 01:00:13;;;;;;;14.17;12.50;;;15.20;99.90;;;;;;6232947;23;20506;-81
2022/05/27 01:02:42;;;;;;;12.67;11.40;;;15.10;99.90;;;;;;6195702;23;20496;-80
2022/05/27 01:05:13;;;;;;;13.63;11.60;;;15.10;99.90;;;;;;6196659;23;20450;-81
2022/05/27 01:07:41;;;;;;;17.70;13.23;;;15.10;99.90;;;;;;6223627;23;20434;-80
2022/05/27 01:10:14;;;;;;;12.30;10.17;;;15.00;99.90;;;;;;6233957;23;20402;-81
2022/05/27 01:13:02;;;;;;;12.53;11.23;;;15.00;99.90;;;;;;6197108;23;20434;-81
2022/05/27 01:15:42;;;;;;;12.17;10.93;;;14.90;99.90;;;;;;6196111;23;20457;-81
2022/05/27 01:18:25;;;;;;;12.37;10.40;;;14.90;99.90;;;;;;6198126;23;20416;-81
2022/05/27 01:21:15;;;;;;;11.27;10.07;;;14.90;99.90;;;;;;6204793;23;20406;-81
2022/05/27 01:24:19;;;;;;;12.70;11.50;;;14.90;99.90;;;;;;6201630;23;20501;-81
2022/05/27 01:27:23;;;;;;;13.40;12.20;;;14.80;99.90;;;;;;6223417;23;20422;-81
2022/05/27 01:30:27;;;;;;;12.20;11.00;;;14.80;99.90;;;;;;6141488;23;20415;-81
2022/05/27 01:33:09;;;;;;;11.90;10.80;;;14.80;99.90;;;;;;6201365;23;20770;-81
2022/05/27 01:35:45;;;;;;;14.40;13.30;;;14.80;99.90;;;;;;6201138;23;20406;-81
2022/05/27 01:38:20;;;;;;;14.50;13.00;;;14.80;99.90;;;;;;6201451;23;20410;-80
2022/05/27 01:40:58;;;;;;;14.33;12.67;;;14.80;99.90;;;;;;6201297;23;20457;-81
2022/05/27 01:43:36;;;;;;;13.43;12.23;;;14.80;99.90;;;;;;6200921;23;20941;-80
2022/05/27 01:46:12;;;;;;;15.07;13.47;;;14.70;99.90;;;;;;6200422;23;20402;-80
2022/05/27 01:48:48;;;;;;;14.20;12.90;;;14.70;99.90;;;;;;6200385;23;20692;-80
2022/05/27 01:51:23;;;;;;;14.67;13.47;;;14.70;99.90;;;;;;6200798;23;20418;-80
2022/05/27 01:53:54;;;;;;;15.73;14.23;;;14.70;99.90;;;;;;6226590;23;20500;-80
2022/05/27 01:56:28;;;;;;;17.10;15.70;;;14.70;99.90;;;;;;6237169;23;20869;-80
2022/05/27 01:59:00;;;;;;;13.30;11.87;;;14.70;99.90;;;;;;6200143;23;20434;-80
2022/05/27 02:01:35;;;;;;;18.27;16.47;;;14.70;99.90;;;;;;6199790;23;20415;-80
2022/05/27 02:04:07;;;;;;;13.20;12.00;;;14.70;99.90;;;;;;6199247;23;20496;-80
2022/05/27 02:06:41;;;;;;;15.90;10.60;;;14.70;99.90;;;;;;6199779;23;20437;-80
2022/05/27 02:09:15;;;;;;;14.50;10.23;;;14.60;99.90;;;;;;6199169;23;20858;-80
2022/05/27 02:11:45;;;;;;;19.27;12.73;;;14.60;99.90;;;;;;6199133;23;20489;-80
2022/05/27 02:14:19;;;;;;;12.80;10.10;;;14.60;99.90;;;;;;6199117;23;20437;-80
2022/05/27 02:16:53;;;;;;;13.30;10.20;;;14.50;99.90;;;;;;6199424;23;20899;-80
2022/05/27 02:19:25;;;;;;;11.07;9.97;;;14.50;99.90;;;;;;6198091;23;20764;-80
2022/05/27 02:21:59;;;;;;;15.70;10.90;;;14.50;99.90;;;;;;6198671;23;20470;-80
2022/05/27 02:24:36;;;;;;;12.43;9.90;;;14.50;99.90;;;;;;6198472;23;20474;-81
2022/05/27 02:27:08;;;;;;;12.60;10.40;;;14.40;99.90;;;;;;6234808;23;20502;-81
2022/05/27 02:29:37;;;;;;;13.90;9.63;;;14.40;99.90;;;;;;6198716;23;20744;-81
2022/05/27 02:32:10;;;;;;;12.50;8.87;;;14.40;99.90;;;;;;6197845;23;20446;-81
2022/05/27 02:37:35;;;;;;;13.60;8.67;;;14.20;99.90;;;;;;6198257;23;20483;-80
2022/05/27 02:40:07;;;;;;;14.57;7.83;;;14.20;99.90;;;;;;6225045;23;20430;-80
2022/05/27 02:42:42;;;;;;;15.90;8.00;;;14.20;99.90;;;;;;6197328;23;20470;-81
2022/05/27 02:45:20;;;;;;;12.87;8.27;;;14.10;99.90;;;;;;6197285;23;20415;-81
2022/05/27 02:47:56;;;;;;;13.13;7.70;;;14.10;99.90;;;;;;6197639;23;20398;-81
2022/05/27 02:50:30;;;;;;;11.93;7.77;;;14.00;99.90;;;;;;6224439;23;20426;-81
2022/05/27 02:53:07;;;;;;;14.50;7.80;;;14.00;99.90;;;;;;6223595;23;20956;-81
2022/05/27 02:55:43;;;;;;;11.23;7.73;;;13.90;99.90;;;;;;6196967;23;20501;-81
2022/05/27 02:58:11;;;;;;;11.40;7.20;;;13.90;99.90;;;;;;6196699;23;20485;-81
2022/05/27 03:00:40;;;;;;;12.20;9.80;;;13.80;99.90;;;;;;6196011;23;20937;-81
2022/05/27 03:03:10;;;;;;;14.03;8.50;;;13.80;99.90;;;;;;6196308;23;20734;-81
2022/05/27 03:05:52;;;;;;;11.87;7.93;;;13.70;99.90;;;;;;6196266;23;20472;-81
2022/05/27 03:08:26;;;;;;;10.93;7.33;;;13.70;99.90;;;;;;6196828;23;20486;-81
2022/05/27 03:11:03;;;;;;;18.43;7.97;;;13.70;99.90;;;;;;6233396;23;20415;-81
2022/05/27 03:14:17;;;;;;;13.47;7.67;;;13.60;99.90;;;;;;6224441;23;20442;-81
2022/05/27 03:16:58;;;;;;;15.27;8.40;;;13.60;99.90;;;;;;6169980;23;20873;-81
2022/05/27 03:19:47;;;;;;;9.37;8.47;;;13.50;99.90;;;;;;6196652;23;20721;-81
2022/05/27 03:22:25;;;;;;;12.73;8.33;;;13.50;99.90;;;;;;6225410;23;20399;-81
2022/05/27 03:25:10;;;;;;;11.83;8.87;;;13.50;99.90;;;;;;6196801;23;20423;-81
2022/05/27 03:27:45;;;;;;;15.20;10.43;;;13.50;99.90;;;;;;6196991;23;20472;-81
2022/05/27 03:30:19;;;;;;;11.87;9.20;;;13.40;99.90;;;;;;6196834;23;20878;-81
2022/05/27 03:32:52;;;;;;;10.97;7.87;;;13.40;99.90;;;;;;6196422;23;20439;-81
2022/05/27 03:35:29;;;;;;;13.50;7.97;;;13.40;99.90;;;;;;6196612;23;20468;-81
2022/05/27 03:38:02;;;;;;;9.10;7.53;;;13.40;99.90;;;;;;6196908;23;20403;-81
2022/05/27 03:40:36;;;;;;;16.63;8.83;;;13.40;99.90;;;;;;6233447;23;20510;-81
2022/05/27 03:43:05;;;;;;;12.23;8.00;;;13.40;99.90;;;;;;6222651;23;20934;-81
2022/05/27 03:45:48;;;;;;;12.70;7.57;;;13.30;99.90;;;;;;6196676;23;20917;-81
2022/05/27 03:48:17;;;;;;;11.80;8.67;;;13.40;99.90;;;;;;6195983;23;20746;-81
2022/05/27 03:50:48;;;;;;;15.50;7.67;;;13.30;99.90;;;;;;6195549;23;20414;-81
2022/05/27 03:53:16;;;;;;;12.43;7.60;;;13.40;99.90;;;;;;6196222;23;20526;-81
2022/05/27 03:55:45;;;;;;;13.00;8.33;;;13.30;99.90;;;;;;6194934;23;20445;-81
2022/05/27 03:58:14;;;;;;;13.40;8.53;;;13.30;99.90;;;;;;6233180;23;20403;-82
2022/05/27 04:00:43;;;;;;;13.73;7.47;;;13.30;99.90;;;;;;6195218;23;20437;-81
2022/05/27 04:03:13;;;;;;;10.10;7.87;;;13.30;99.90;;;;;;6232171;23;20418;-81
2022/05/27 04:05:41;;;;;;;13.17;8.83;;;13.30;99.90;;;;;;6194984;23;20501;-81
2022/05/27 04:08:10;;;;;;;10.47;8.57;;;13.30;99.90;;;;;;6194660;23;20810;-81
2022/05/27 04:10:39;;;;;;;10.13;7.30;;;13.30;99.90;;;;;;6195082;23;20446;-81
2022/05/27 04:13:07;;;;;;;15.60;7.97;;;13.30;99.90;;;;;;6222304;23;20790;-81
2022/05/27 04:15:35;;;;;;;10.53;8.03;;;13.30;99.90;;;;;;6195741;23;20723;-80
2022/05/27 04:18:03;;;;;;;12.40;7.30;;;13.30;99.90;;;;;;6195239;23;20885;-81
2022/05/27 04:20:32;;;;;;;11.93;7.80;;;13.40;99.90;;;;;;6194147;23;20461;-81
2022/05/27 04:23:00;;;;;;;13.27;7.40;;;13.30;99.90;;;;;;6194557;23;20473;-81
2022/05/27 04:25:29;;;;;;;9.20;8.10;;;13.30;99.90;;;;;;6194725;23;20514;-81
2022/05/27 04:27:57;;;;;;;12.53;8.00;;;13.40;99.90;;;;;;6194738;23;20438;-81
2022/05/27 04:30:26;;;;;;;17.10;8.27;;;13.40;99.90;;;;;;6221718;23;20413;-81
2022/05/27 04:32:54;;;;;;;13.13;7.20;;;13.40;99.90;;;;;;6230986;23;20453;-81
2022/05/27 04:35:23;;;;;;;11.07;8.00;;;13.40;99.90;;;;;;6194170;23;20418;-81
2022/05/27 04:37:51;;;;;;;10.33;8.57;;;13.50;99.90;;;;;;6193969;23;20410;-81
2022/05/27 04:40:19;;;;;;;12.60;8.17;;;13.50;99.90;;;;;;6195226;23;20427;-81
2022/05/27 04:42:50;;;;;;;12.17;8.10;;;13.50;99.90;;;;;;6194720;23;20837;-81
2022/05/27 04:45:19;;;;;;;11.10;6.60;;;13.50;99.90;;;;;;6232267;23;20406;-81
2022/05/27 04:47:48;;;;;;;9.03;7.90;;;13.50;99.90;;;;;;6194310;23;20514;-81
2022/05/27 04:50:18;;;;;;;9.93;7.53;;;13.60;99.90;;;;;;6194390;23;20925;-81
2022/05/27 04:52:46;;;;;;;9.70;6.77;;;13.60;99.90;;;;;;6193183;23;20517;-81
2022/05/27 04:55:17;;;;;;;12.23;8.30;;;13.60;99.90;;;;;;6193227;23;20414;-81
2022/05/27 04:57:49;;;;;;;9.90;7.47;;;13.60;99.90;;;;;;6195293;23;20465;-81
2022/05/27 05:00:21;;;;;;;11.50;8.97;;;13.60;99.90;;;;;;6222176;23;20391;-81
2022/05/27 05:02:49;;;;;;;11.40;8.93;;;13.70;99.90;;;;;;6194361;23;20434;-82
2022/05/27 05:05:20;;;;;;;14.83;9.00;;;13.70;99.90;;;;;;6195305;23;20429;-81
2022/05/27 05:07:51;;;;;;;9.40;7.30;;;13.70;99.90;;;;;;6221950;23;20390;-81
2022/05/27 05:10:22;;;;;;;11.40;8.20;;;13.80;99.90;;;;;;6194969;23;20442;-81
2022/05/27 05:12:51;;;;;;;12.20;7.60;;;13.80;99.90;;;;;;6237546;23;20419;-82
2022/05/27 05:15:22;;;;;;;10.77;7.23;;;13.80;99.90;;;;;;6195654;23;20995;-82
2022/05/27 05:17:50;;;;;;;12.57;7.60;;;13.90;99.90;;;;;;6195882;23;20441;-82
2022/05/27 05:20:22;;;;;;;8.37;6.47;;;13.90;99.90;;;;;;6205169;23;20414;-82
2022/05/27 05:22:50;;;;;;;10.00;8.43;;;14.00;99.90;;;;;;6201077;23;20494;-81
2022/05/27 05:25:18;;;;;;;13.73;8.30;;;14.00;99.90;;;;;;6201713;23;20410;-81
2022/05/27 05:27:46;;;;;;;10.40;7.30;;;14.00;99.90;;;;;;6202192;23;20433;-82
2022/05/27 05:30:17;;;;;;;10.80;7.03;;;14.10;99.90;;;;;;6199790;23;20481;-82
2022/05/27 05:32:47;;;;;;;9.67;7.70;;;14.10;99.90;;;;;;6205385;23;20454;-82
2022/05/27 05:35:15;;;;;;;12.10;8.43;;;14.20;99.90;;;;;;6199930;23;20477;-82
2022/05/27 05:37:44;;;;;;;10.50;7.63;;;14.20;99.90;;;;;;6203524;23;20421;-81
2022/05/27 05:40:13;;;;;;;16.23;9.03;;;14.30;99.90;;;;;;6200370;23;20477;-82
2022/05/27 05:42:42;;;;;;;14.10;9.20;;;14.30;99.90;;;;;;6238356;23;20459;-81
2022/05/27 05:45:12;;;;;;;11.90;8.20;;;14.40;99.90;;;;;;6199404;23;20418;-82
2022/05/27 05:47:40;;;;;;;15.80;9.63;;;14.50;99.90;;;;;;6201399;23;20453;-81
2022/05/27 05:50:11;;;;;;;10.47;9.47;;;14.50;99.90;;;;;;6230324;23;20407;-81
2022/05/27 05:52:40;;;;;;;15.37;9.37;;;14.50;99.90;;;;;;6199300;23;20465;-82
2022/05/27 05:55:09;;;;;;;11.93;8.77;;;14.60;99.90;;;;;;6202014;23;20418;-82
2022/05/27 05:57:42;;;;;;;12.90;9.33;;;14.70;99.90;;;;;;6201967;23;20441;-82
2022/05/27 06:00:13;;;;;;;9.87;8.30;;;14.80;99.90;;;;;;6200286;23;20402;-82
2022/05/27 06:02:42;;;;;;;12.90;8.50;;;14.80;99.90;;;;;;6201156;23;20485;-82
2022/05/27 06:05:12;;;;;;;13.27;9.43;;;14.80;99.90;;;;;;6201789;23;20416;-82
2022/05/27 06:07:40;;;;;;;10.37;9.20;;;14.80;99.90;;;;;;6201737;23;20438;-82
2022/05/27 06:10:10;;;;;;;11.30;9.30;;;14.80;99.90;;;;;;6199384;23;20895;-82
2022/05/27 06:12:39;;;;;;;11.13;8.83;;;14.80;99.90;;;;;;6236537;23;20417;-82
2022/05/27 06:15:10;;;;;;;10.20;8.83;;;14.80;99.90;;;;;;6201889;23;20427;-82
2022/05/27 06:17:38;;;;;;;12.60;9.17;;;14.90;99.90;;;;;;6227773;23;20453;-83
2022/05/27 06:20:08;;;;;;;11.33;8.90;;;15.00;99.90;;;;;;6204191;23;20806;-82
2022/05/27 06:22:38;;;;;;;12.27;10.23;;;15.10;99.90;;;;;;6201980;23;20470;-83
2022/05/27 06:25:07;;;;;;;11.93;9.00;;;15.10;99.90;;;;;;6203205;23;20414;-82
2022/05/27 06:27:35;;;;;;;15.07;11.23;;;15.10;99.90;;;;;;6201582;23;20422;-82
2022/05/27 06:35:37;;;;;;;18.23;10.63;;;15.20;99.90;;;;;;6198570;23;20449;-82
2022/05/27 06:38:07;;;;;;;13.00;9.10;;;15.20;99.90;;;;;;6201478;23;20410;-83
2022/05/27 06:40:36;;;;;;;11.03;9.63;;;15.20;99.90;;;;;;6201929;23;20422;-83
2022/05/27 06:43:04;;;;;;;10.77;9.67;;;15.30;99.90;;;;;;6201074;23;20425;-82
2022/05/27 06:45:33;;;;;;;11.83;9.70;;;15.50;99.90;;;;;;6202530;23;20913;-83
2022/05/27 06:48:01;;;;;;;10.23;9.20;;;15.60;99.90;;;;;;6200940;23;20423;-83
2022/05/27 06:50:31;;;;;;;10.63;9.57;;;15.60;99.90;;;;;;6199160;23;20418;-83
2022/05/27 06:52:59;;;;;;;13.90;11.27;;;15.60;99.90;;;;;;6227092;23;20484;-81
2022/05/27 06:55:29;;;;;;;11.10;9.87;;;15.70;99.90;;;;;;6224645;23;20409;-82
2022/05/27 06:57:57;;;;;;;12.00;9.67;;;15.90;99.90;;;;;;6198749;23;20870;-82
2022/05/27 07:00:25;;;;;;;12.77;8.97;;;16.20;99.90;;;;;;6197805;23;20890;-82
2022/05/27 07:02:54;;;;;;;10.83;9.00;;;16.40;99.90;;;;;;6196935;23;20424;-82
2022/05/27 07:05:24;;;;;;;11.50;8.10;;;16.50;99.90;;;;;;6195194;23;20419;-82
2022/05/27 07:07:52;;;;;;;11.93;7.20;;;16.70;99.90;;;;;;6194742;23;20463;-81
2022/05/27 07:10:20;;;;;;;8.40;6.40;;;16.70;99.90;;;;;;6232573;23;20389;-82
2022/05/27 07:12:50;;;;;;;9.37;6.73;;;16.70;99.90;;;;;;6197907;23;20766;-82
2022/05/27 07:15:18;;;;;;;11.77;6.70;;;16.50;99.90;;;;;;6194595;23;20438;-79
2022/05/27 07:17:46;;;;;;;10.13;6.43;;;16.50;99.90;;;;;;6196187;23;20484;-81
2022/05/27 07:20:15;;;;;;;10.43;6.90;;;16.50;99.90;;;;;;6194957;23;20425;-80
2022/05/27 07:22:43;;;;;;;14.73;7.50;;;16.60;99.90;;;;;;6195846;23;20885;-81
2022/05/27 07:25:13;;;;;;;9.47;6.33;;;16.60;99.90;;;;;;6194688;23;20442;-81
2022/05/27 07:27:42;;;;;;;10.57;6.13;;;16.50;99.90;;;;;;6193990;23;20435;-81
2022/05/27 07:30:14;;;;;;;14.23;7.17;;;16.40;99.90;;;;;;6194967;23;20453;-81
2022/05/27 07:32:44;;;;;;;13.70;6.00;;;16.40;99.60;;;;;;6194973;23;20430;-82
2022/05/27 07:35:13;;;;;;;10.77;5.80;;;16.60;99.60;;;;;;6194096;23;20726;-81
2022/05/27 07:37:41;;;;;;;8.30;5.47;;;16.80;99.40;;;;;;6193905;23;20509;-81
2022/05/27 07:40:10;;;;;;;12.83;5.20;;;17.00;99.00;;;;;;6192832;23;20535;-81
2022/05/27 07:42:39;;;;;;;13.80;6.00;;;17.10;98.70;;;;;;6193147;23;20537;-80
2022/05/27 07:45:17;;;;;;;9.03;5.43;;;17.30;98.50;;;;;;6230445;23;20379;-82
2022/05/27 07:47:45;;;;;;;12.80;6.70;;;17.50;98.20;;;;;;6193910;23;20895;-81
2022/05/27 07:50:14;;;;;;;10.90;5.83;;;17.50;97.50;;;;;;6193755;23;20697;-81
2022/05/27 07:52:43;;;;;;;18.30;8.43;;;17.60;97.30;;;;;;6231256;23;20419;-82
2022/05/27 07:55:12;;;;;;;11.47;6.93;;;17.70;97.20;;;;;;6221516;23;20427;-81
2022/05/27 07:57:44;;;;;;;13.43;7.10;;;17.80;96.90;;;;;;6193991;23;20491;-82
2022/05/27 08:00:17;;;;;;;10.93;6.63;;;17.90;96.50;;;;;;6220823;23;20784;-82
2022/05/27 08:02:46;;;;;;;12.10;6.20;;;17.90;96.20;;;;;;6230021;23;20409;-82
2022/05/27 08:05:17;;;;;;;10.00;5.23;;;18.00;96.20;;;;;;6192970;23;20411;-82
2022/05/27 08:07:45;;;;;;;14.30;6.13;;;18.00;96.00;;;;;;6192436;23;20453;-81
2022/05/27 08:10:17;;;;;;;9.80;6.43;;;18.10;95.90;;;;;;6192994;23;20411;-80
2022/05/27 08:12:45;;;;;;;13.23;5.93;;;18.10;95.70;;;;;;6193316;23;20426;-81
2022/05/27 08:15:16;;;;;;;11.47;6.60;;;18.20;95.40;;;;;;6231162;23;20389;-80
2022/05/27 08:17:45;;;;;;;8.53;5.03;;;18.20;94.60;;;;;;6193028;23;20415;-82
2022/05/27 08:20:17;;;;;;;9.30;5.23;;;18.20;94.70;;;;;;6193775;23;20759;-81
2022/05/27 08:22:45;;;;;;;8.63;5.67;;;18.20;94.40;;;;;;6193402;23;20515;-82
2022/05/27 08:25:14;;;;;;;14.00;5.53;;;18.10;94.30;;;;;;6192931;23;20448;-80
2022/05/27 08:27:42;;;;;;;10.07;6.10;;;17.90;94.30;;;;;;6192999;23;20441;-80
2022/05/27 08:30:13;;;;;;;11.03;5.23;;;17.80;94.00;;;;;;6193236;23;20418;-81
2022/05/27 08:32:42;;;;;;;9.37;5.50;;;17.90;94.00;;;;;;6192620;23;20413;-82
2022/05/27 08:38:04;;;;;;;10.77;6.10;;;18.00;93.60;;;;;;6193736;23;20436;-82
2022/05/27 08:40:57;;;;;;;9.00;5.57;;;17.90;93.20;;;;;;6192913;23;20411;-81
2022/05/27 08:43:32;;;;;;;10.90;4.77;;;17.90;93.30;;;;;;6220298;23;20450;-82
2022/05/27 08:46:07;;;;;;;11.90;5.60;;;17.70;93.20;;;;;;6193155;23;20410;-80
2022/05/27 08:48:41;;;;;;;11.70;5.27;;;17.70;93.10;;;;;;6193381;23;20478;-81
2022/05/27 08:51:37;;;;;;;8.57;4.63;;;17.60;93.00;;;;;;6192870;23;20391;-81
2022/05/27 08:54:09;;;;;;;8.50;5.60;;;17.60;92.90;;;;;;6163073;23;20919;-81
2022/05/27 08:59:36;;;;;;;9.27;5.10;;;17.70;92.60;;;;;;6163330;23;20995;-81
2022/05/27 09:02:14;;;;;;;11.53;5.43;;;17.80;92.40;;;;;;6163880;23;20382;-80
2022/05/27 09:04:51;;;;;;;10.60;5.20;;;17.80;92.20;;;;;;6163441;23;20416;-82
2022/05/27 09:07:30;;;;;;;10.13;5.23;;;17.80;92.10;;;;;;6162421;23;20869;-82
2022/05/27 09:10:00;;;;;;;10.60;4.40;;;17.80;92.20;;;;;;6162651;23;20400;-81
2022/05/27 09:12:51;;;;;;;9.00;5.40;;;17.70;92.10;;;;;;6162286;23;20507;-82
2022/05/27 09:15:33;;;;;;;11.57;6.60;;;17.60;92.00;;;;;;6189209;23;20396;-81
2022/05/27 09:18:13;;;;;;;12.33;5.60;;;17.50;91.80;;;;;;6162282;23;20426;-81
2022/05/27 09:20:49;;;;;;;9.47;5.13;;;17.50;91.90;;;;;;6164501;23;20385;-81
2022/05/27 09:23:32;;;;;;;9.33;5.67;;;17.50;91.70;;;;;;6164414;23;20449;-82
2022/05/27 09:26:04;;;;;;;11.03;4.40;;;17.60;91.80;;;;;;6192781;23;20390;-82
2022/05/27 09:28:40;;;;;;;8.80;4.57;;;17.60;91.70;;;;;;6167209;23;20454;-81
2022/05/27 09:31:11;;;;;;;9.60;4.80;;;17.70;91.60;;;;;;6192081;23;20893;-81
2022/05/27 09:33:40;;;;;;;12.23;5.10;;;17.70;91.50;;;;;;6164235;23;20788;-81
2022/05/27 09:36:15;;;;;;;9.20;4.70;;;17.70;91.50;;;;;;6166105;23;20451;-81
2022/05/27 09:38:53;;;;;;;9.03;4.70;;;17.60;91.30;;;;;;6167928;23;20417;-81
2022/05/27 09:41:30;;;;;;;8.57;4.93;;;17.50;90.30;;;;;;6166720;23;20403;-82
2022/05/27 09:44:18;;;;;;;8.70;5.40;;;17.30;90.20;;;;;;6168997;23;20443;-82
2022/05/27 09:46:46;;;;;;;15.27;6.67;;;17.40;90.20;;;;;;6196152;23;20449;-82
2022/05/27 09:49:15;;;;;;;9.90;5.60;;;17.50;90.40;;;;;;6203755;23;20766;-82
2022/05/27 09:51:44;;;;;;;8.40;4.60;;;17.50;90.40;;;;;;6203569;23;20708;-83
2022/05/27 09:54:28;;;;;;;9.83;4.83;;;17.60;90.20;;;;;;6168807;23;20962;-82
2022/05/27 09:56:59;;;;;;;11.23;4.87;;;17.60;89.80;;;;;;6167127;23;20415;-82
2022/05/27 09:59:34;;;;;;;10.57;5.57;;;17.60;89.60;;;;;;6166554;23;20378;-82
2022/05/27 10:02:21;;;;;;;10.13;5.77;;;17.60;89.80;;;;;;6203663;23;20379;-82
2022/05/27 10:04:54;;;;;;;10.47;5.70;;;17.60;90.00;;;;;;6164965;23;20719;-83
2022/05/27 10:07:43;;;;;;;10.40;4.90;;;17.60;90.10;;;;;;6166246;23;20755;-82
2022/05/27 10:10:22;;;;;;;11.33;5.77;;;17.60;90.00;;;;;;6165945;23;20386;-83
2022/05/27 10:12:51;;;;;;;12.10;5.20;;;17.60;90.10;;;;;;6165809;23;20427;-81
2022/05/27 10:15:40;;;;;;;10.60;5.77;;;17.50;90.20;;;;;;6166538;23;20421;-83
2022/05/27 10:18:18;;;;;;;11.60;4.90;;;17.60;90.40;;;;;;6165344;23;20390;-82
2022/05/27 10:20:52;;;;;;;10.13;5.30;;;17.70;90.60;;;;;;6166512;23;20389;-81
2022/05/27 10:23:28;;;;;;;9.47;5.00;;;17.80;90.60;;;;;;6166671;23;20474;-82
2022/05/27 10:26:00;;;;;;;13.07;5.57;;;17.80;90.40;;;;;;6165263;23;20423;-82
2022/05/27 10:28:30;;;;;;;8.93;5.07;;;17.90;90.50;;;;;;6203646;23;20419;-82
2022/05/27 10:31:01;;;;;;;10.40;4.80;;;17.90;90.30;;;;;;6166218;23;20735;-82
2022/05/27 10:33:41;;;;;;;10.30;5.40;;;17.80;90.20;;;;;;6166168;23;20414;-83
2022/05/27 10:36:55;;;;;;;10.27;5.80;;;17.90;90.20;;;;;;6166051;23;20736;-81
2022/05/27 10:39:29;;;;;;;9.80;4.90;;;18.00;90.20;;;;;;6048450;23;20500;-82
2022/05/27 10:42:18;;;;;;;9.07;5.07;;;17.90;90.20;;;;;;6158538;23;20420;-81
2022/05/27 10:44:58;;;;;;;9.53;5.43;;;17.90;90.10;;;;;;6166340;23;20514;-82
2022/05/27 10:47:43;;;;;;;9.17;4.83;;;17.80;90.00;;;;;;6192257;23;20392;-82
2022/05/27 10:50:19;;;;;;;9.63;5.37;;;17.70;89.90;;;;;;6166427;23;20517;-81
2022/05/27 10:53:16;;;;;;;9.97;5.80;;;17.60;89.80;;;;;;6166829;23;20448;-81
2022/05/27 10:55:57;;;;;;;8.27;5.13;;;17.70;89.90;;;;;;6164445;23;20393;-81
2022/05/27 11:04:53;;;;;;;10.93;4.80;;;17.60;89.30;;;;;;6167863;23;20426;-81
2022/05/27 11:07:28;;;;;;;7.50;5.50;;;17.50;89.50;;;;;;6166270;23;20433;-82
2022/05/27 11:10:21;;;;;;;9.10;5.60;;;17.50;89.80;;;;;;6165398;23;20457;-81
2022/05/27 11:16:05;;;;;;;7.17;4.40;;;17.70;89.70;;;;;;6192685;23;20407;-82
2022/05/27 11:18:46;;;;;;;15.13;5.53;;;17.80;89.30;;;;;;6202244;23;20402;-81
2022/05/27 11:21:29;;;;;;;6.90;4.70;;;17.90;88.60;;;;;;6166029;23;20441;-82
2022/05/27 11:24:25;;;;;;;11.50;4.93;;;18.00;88.40;;;;;;6201481;23;20431;-82
2022/05/27 11:27:02;;;;;;;8.07;4.00;;;18.00;88.60;;;;;;6165353;23;20501;-82
2022/05/27 11:29:53;;;;;;;6.10;3.93;;;18.10;88.30;;;;;;6168467;23;20422;-82
2022/05/27 11:32:42;;;;;;;10.17;4.90;;;18.20;87.70;;;;;;6165881;23;20447;-82
2022/05/27 11:35:17;;;;;;;11.10;5.40;;;18.30;87.70;;;;;;6202654;23;20351;-82
2022/05/27 11:37:56;;;;;;;7.93;4.30;;;18.40;87.90;;;;;;6164780;23;20446;-82
2022/05/27 11:40:33;;;;;;;7.73;5.07;;;18.50;87.60;;;;;;6202818;23;20407;-82
2022/05/27 11:43:31;;;;;;;9.87;5.27;;;18.50;87.40;;;;;;6164291;23;20446;-80
2022/05/27 11:46:18;;;;;;;9.17;4.80;;;18.50;87.70;;;;;;6166138;23;20436;-82
2022/05/27 11:48:53;;;;;;;10.47;4.47;;;18.50;87.70;;;;;;6191390;23;20366;-81
2022/05/27 11:51:38;;;;;;;9.07;5.33;;;18.50;87.50;;;;;;6190772;23;20399;-80
2022/05/27 11:54:31;;;;;;;9.90;4.93;;;18.40;87.10;;;;;;6164540;23;20431;-81
2022/05/27 11:57:15;;;;;;;11.70;5.53;;;18.30;86.90;;;;;;6164011;23;20867;-80
2022/05/27 11:59:50;;;;;;;10.80;5.43;;;18.20;86.60;;;;;;6163592;23;20958;-81
2022/05/27 12:02:31;;;;;;;10.73;5.90;;;18.10;86.20;;;;;;6163721;23;20446;-81
2022/05/27 12:05:07;;;;;;;8.13;5.93;;;18.00;86.40;;;;;;6199558;23;20442;-81
2022/05/27 12:07:42;;;;;;;11.17;4.87;;;18.00;86.60;;;;;;6163297;23;20719;-80
2022/05/27 12:10:20;;;;;;;7.70;4.87;;;17.90;86.20;;;;;;6163108;23;20501;-81
2022/05/27 12:12:55;;;;;;;8.70;5.13;;;17.90;86.20;;;;;;6189421;23;20968;-80
2022/05/27 12:15:28;;;;;;;7.27;5.10;;;17.80;86.30;;;;;;6162524;23;20442;-82
2022/05/27 12:17:58;;;;;;;10.13;6.00;;;17.80;86.30;;;;;;6162832;23;20415;-79
2022/05/27 12:20:31;;;;;;;11.10;5.70;;;17.70;86.10;;;;;;6199604;23;20890;-80
2022/05/27 12:23:04;;;;;;;13.93;5.50;;;17.70;86.10;;;;;;6163419;23;20494;-81
2022/05/27 12:25:38;;;;;;;11.70;4.57;;;17.60;86.80;;;;;;6163133;23;20480;-82
2022/05/27 12:28:07;;;;;;;9.43;5.57;;;17.50;87.80;;;;;;6163590;23;20466;-81
2022/05/27 12:30:40;;;;;;;13.67;6.57;;;17.50;88.10;;;;;;6163010;23;20482;-80
2022/05/27 12:33:15;;;;;;;10.57;5.47;;;17.40;88.40;;;;;;6163040;23;20431;-81
2022/05/27 12:35:48;;;;;;;16.70;5.80;;;17.40;88.70;;;;;;6199366;23;20355;-81
2022/05/27 12:38:23;;;;;;;11.50;4.50;;;17.30;88.60;;;;;;6162657;23;20418;-81
2022/05/27 12:40:54;;;;;;;17.13;6.00;;;17.30;88.80;;;;;;6162676;23;20411;-81
2022/05/27 12:43:28;;;;;;;8.27;4.53;;;17.30;89.00;;;;;;6198758;23;20423;-80
2022/05/27 12:46:15;;;;;;;12.10;5.00;;;17.30;88.50;;;;;;6162815;23;20496;-81
2022/05/27 12:48:46;;;;;;;11.47;5.53;;;17.40;88.30;;;;;;6162901;23;20404;-81
2022/05/27 12:51:45;;;;;;;8.77;5.07;;;17.40;87.90;;;;;;6162448;23;20462;-80
2022/05/27 12:54:52;;;;;;;14.73;5.47;;;17.30;87.90;;;;;;6128598;23;20414;-80
2022/05/27 13:03:50;;;;;;;11.50;5.23;;;17.60;88.40;;;;;;6189153;23;20429;-80
2022/05/27 13:06:43;;;;;;;12.13;5.20;;;17.70;87.60;;;;;;6161852;23;20466;-79
2022/05/27 13:09:35;;;;;;;11.30;5.50;;;17.70;87.60;;;;;;6162529;23;20716;-81
2022/05/27 13:12:04;;;;;;;9.60;4.93;;;17.70;87.30;;;;;;6163823;23;20464;-80
2022/05/27 13:14:47;;;;;;;10.20;5.40;;;17.70;87.30;;;;;;6164464;23;20945;-82
2022/05/27 13:17:34;;;;;;;9.37;4.70;;;17.60;87.00;;;;;;6163383;23;20415;-80
2022/05/27 13:20:09;;;;;;;8.30;5.10;;;17.50;86.70;;;;;;6163176;23;20412;-81
2022/05/27 13:22:51;;;;;;;10.60;5.53;;;17.40;87.20;;;;;;6162732;23;20790;-80
2022/05/27 13:25:25;;;;;;;8.17;5.27;;;17.50;87.50;;;;;;6200192;23;20437;-81
2022/05/27 13:27:58;;;;;;;12.53;5.93;;;17.50;87.60;;;;;;6164008;23;20394;-81
2022/05/27 13:30:56;;;;;;;10.73;5.17;;;17.50;87.60;;;;;;6165923;23;20394;-80
2022/05/27 13:33:28;;;;;;;9.60;5.30;;;17.60;88.00;;;;;;6191476;23;20402;-80
2022/05/27 13:36:01;;;;;;;8.53;5.70;;;17.50;87.80;;;;;;6165134;23;20436;-81
2022/05/27 13:38:35;;;;;;;9.83;5.57;;;17.50;87.40;;;;;;6163670;23;20382;-80
2022/05/27 13:41:09;;;;;;;10.07;5.73;;;17.50;87.20;;;;;;6164759;23;20698;-80
2022/05/27 13:43:41;;;;;;;12.47;5.60;;;17.50;87.20;;;;;;6164511;23;20464;-80